Today's 10 Minute Log



Time Temperature  Humidity  Dewpoint    Barometer Average speed Gust speed   Direction  Rain last min  Daily rain  Monthly rain Yearly rain Heatindex 
00:10       42.9      69       33.5      30.115      0.0           0.0           200         0.000        0.000        0.140        7.380      42.9
00:20       42.0      73       34.0      30.110      0.0           0.0           200         0.000        0.000        0.140        7.380      42.0
00:30       41.2      74       33.5      30.109      0.0           0.0           147         0.000        0.000        0.140        7.380      41.2
00:40       41.0      75       33.7      30.111      0.0           0.0           143         0.000        0.000        0.140        7.380      41.0
00:50       41.1      76       34.1      30.111      0.0           0.0           139         0.000        0.000        0.140        7.380      41.1
01:00       40.9      76       33.9      30.112      0.0           0.0           139         0.000        0.000        0.140        7.380      40.9
01:10       40.4      77       33.7      30.111      0.0           0.0           139         0.000        0.000        0.140        7.380      40.4
01:20       39.7      75       32.4      30.111      0.0           0.0           139         0.000        0.000        0.140        7.380      39.7
01:30       39.6      76       32.7      30.109      0.0           0.0           139         0.000        0.000        0.140        7.380      39.6
01:40       39.7      77       33.1      30.110      0.0           0.0           139         0.000        0.000        0.140        7.380      39.7
01:50       39.8      77       33.2      30.106      0.0           0.0           139         0.000        0.000        0.140        7.380      39.8
02:00       39.6      76       32.7      30.105      0.0           0.0           139         0.000        0.000        0.140        7.380      39.6
02:10       39.2      77       32.6      30.107      0.0           0.0           139         0.000        0.000        0.140        7.380      39.2
02:20       38.7      76       31.8      30.106      0.0           0.0           129         0.000        0.000        0.140        7.380      38.7
02:30       38.5      77       31.9      30.106      0.0           0.0           128         0.000        0.000        0.140        7.380      38.5
02:40       38.6      77       32.0      30.107      0.0           0.0           128         0.000        0.000        0.140        7.380      38.6
02:50       38.5      77       31.9      30.108      0.0           0.0           128         0.000        0.000        0.140        7.380      38.5
03:00       38.6      77       32.0      30.107      0.0           0.0           128         0.000        0.000        0.140        7.380      38.6
03:10       38.5      77       31.9      30.107      0.0           0.0           128         0.000        0.000        0.140        7.380      38.5
03:20       38.2      77       31.6      30.105      0.0           0.0           128         0.000        0.000        0.140        7.380      38.2
03:30       37.8      77       31.2      30.105      0.0           0.0           128         0.000        0.000        0.140        7.380      37.8
03:40       37.5      77       30.9      30.104      0.0           0.0           128         0.000        0.000        0.140        7.380      37.5
03:50       37.5      77       30.9      30.104      0.0           0.0           128         0.000        0.000        0.140        7.380      37.5
04:00       37.5      77       30.9      30.105      0.0           0.0           128         0.000        0.000        0.140        7.380      37.5
04:10       37.3      77       30.8      30.110      0.0           0.0           128         0.000        0.000        0.140        7.380      37.3
04:20       37.1      77       30.6      30.110      0.0           0.0           128         0.000        0.000        0.140        7.380      37.1
04:30       37.1      77       30.6      30.113      0.0           0.0           128         0.000        0.000        0.140        7.380      37.1
04:40       36.6      77       30.0      30.113      0.0           0.0           128         0.000        0.000        0.140        7.380      36.6
04:50       35.9      78       29.7      30.114      0.0           0.0           128         0.000        0.000        0.140        7.380      35.9